sensor_id;sensor_type;location;lat;lon;timestamp;pressure;altitude;pressure_sealevel;temperature;humidity
78373;BME280;67656;52.074;4.758;2023-06-22T00:00:36;102033.94;;;16.72;100.00
78373;BME280;67656;52.074;4.758;2023-06-22T00:05:36;102023.06;;;16.78;100.00
78373;BME280;67656;52.074;4.758;2023-06-22T00:10:37;102036.00;;;16.64;100.00
78373;BME280;67656;52.074;4.758;2023-06-22T00:15:41;102026.34;;;16.59;100.00
78373;BME280;67656;52.074;4.758;2023-06-22T00:20:42;102036.19;;;16.57;100.00
78373;BME280;67656;52.074;4.758;2023-06-22T00:25:46;102037.84;;;16.62;100.00
78373;BME280;67656;52.074;4.758;2023-06-22T00:30:48;102029.25;;;16.53;100.00
78373;BME280;67656;52.074;4.758;2023-06-22T00:35:49;102019.44;;;16.54;100.00
78373;BME280;67656;52.074;4.758;2023-06-22T00:40:49;102018.69;;;16.50;100.00
78373;BME280;67656;52.074;4.758;2023-06-22T00:45:52;102010.75;;;16.49;100.00
78373;BME280;67656;52.074;4.758;2023-06-22T00:50:55;102005.88;;;16.35;100.00
78373;BME280;67656;52.074;4.758;2023-06-22T00:55:57;102004.94;;;16.37;100.00
78373;BME280;67656;52.074;4.758;2023-06-22T01:00:58;102001.88;;;16.21;100.00
78373;BME280;67656;52.074;4.758;2023-06-22T01:06:12;102012.44;;;16.24;100.00
78373;BME280;67656;52.074;4.758;2023-06-22T01:11:20;102004.78;;;16.13;100.00
78373;BME280;67656;52.074;4.758;2023-06-22T01:21:23;102012.84;;;16.12;100.00
78373;BME280;67656;52.074;4.758;2023-06-22T01:26:36;101999.38;;;16.17;100.00
78373;BME280;67656;52.074;4.758;2023-06-22T01:31:39;101995.13;;;16.11;100.00
78373;BME280;67656;52.074;4.758;2023-06-22T01:36:44;102005.47;;;16.20;100.00
78373;BME280;67656;52.074;4.758;2023-06-22T01:41:47;102005.63;;;16.16;100.00
78373;BME280;67656;52.074;4.758;2023-06-22T01:46:50;102005.00;;;16.07;100.00
78373;BME280;67656;52.074;4.758;2023-06-22T01:51:51;102010.25;;;16.10;100.00
78373;BME280;67656;52.074;4.758;2023-06-22T01:56:51;102005.00;;;16.07;100.00
78373;BME280;67656;52.074;4.758;2023-06-22T02:02:05;102004.19;;;16.05;100.00
78373;BME280;67656;52.074;4.758;2023-06-22T02:07:11;102006.28;;;15.95;100.00
78373;BME280;67656;52.074;4.758;2023-06-22T02:12:13;102001.09;;;15.91;100.00
78373;BME280;67656;52.074;4.758;2023-06-22T02:17:17;102003.03;;;15.84;100.00
78373;BME280;67656;52.074;4.758;2023-06-22T02:22:18;102013.00;;;15.77;100.00
78373;BME280;67656;52.074;4.758;2023-06-22T02:27:18;102011.28;;;15.76;100.00
78373;BME280;67656;52.074;4.758;2023-06-22T02:32:19;101996.28;;;15.74;100.00
78373;BME280;67656;52.074;4.758;2023-06-22T02:37:20;102001.50;;;15.77;100.00
78373;BME280;67656;52.074;4.758;2023-06-22T02:42:21;102000.88;;;15.69;100.00
78373;BME280;67656;52.074;4.758;2023-06-22T02:47:22;102015.81;;;15.73;100.00
78373;BME280;67656;52.074;4.758;2023-06-22T02:52:24;102004.41;;;15.69;100.00
78373;BME280;67656;52.074;4.758;2023-06-22T02:57:25;102013.38;;;15.66;100.00
78373;BME280;67656;52.074;4.758;2023-06-22T03:02:25;102015.00;;;15.71;100.00
78373;BME280;67656;52.074;4.758;2023-06-22T03:07:26;102014.47;;;15.59;100.00
78373;BME280;67656;52.074;4.758;2023-06-22T03:12:26;102019.16;;;15.51;100.00
78373;BME280;67656;52.074;4.758;2023-06-22T03:17:29;102018.53;;;15.41;100.00
78373;BME280;67656;52.074;4.758;2023-06-22T03:22:30;101995.63;;;15.37;100.00
78373;BME280;67656;52.074;4.758;2023-06-22T03:27:30;102002.59;;;15.41;100.00
78373;BME280;67656;52.074;4.758;2023-06-22T03:32:31;101996.50;;;15.38;100.00
78373;BME280;67656;52.074;4.758;2023-06-22T03:37:32;101992.00;;;15.40;100.00
78373;BME280;67656;52.074;4.758;2023-06-22T03:42:34;102000.91;;;15.39;100.00
78373;BME280;67656;52.074;4.758;2023-06-22T03:47:36;101990.41;;;15.32;100.00
78373;BME280;67656;52.074;4.758;2023-06-22T03:52:37;101981.63;;;15.30;100.00
78373;BME280;67656;52.074;4.758;2023-06-22T03:57:37;101972.72;;;15.31;100.00
78373;BME280;67656;52.074;4.758;2023-06-22T04:02:38;101977.13;;;15.32;100.00
78373;BME280;67656;52.074;4.758;2023-06-22T04:07:39;101983.56;;;15.55;100.00
78373;BME280;67656;52.074;4.758;2023-06-22T04:12:39;101968.41;;;15.57;100.00
78373;BME280;67656;52.074;4.758;2023-06-22T04:17:42;101975.38;;;15.61;100.00
78373;BME280;67656;52.074;4.758;2023-06-22T04:22:43;101974.28;;;15.69;100.00
78373;BME280;67656;52.074;4.758;2023-06-22T04:27:43;101979.22;;;15.81;100.00
78373;BME280;67656;52.074;4.758;2023-06-22T04:32:46;101977.97;;;15.93;100.00
78373;BME280;67656;52.074;4.758;2023-06-22T04:37:47;101980.31;;;16.02;100.00
78373;BME280;67656;52.074;4.758;2023-06-22T04:42:47;101987.88;;;16.16;100.00
78373;BME280;67656;52.074;4.758;2023-06-22T04:47:49;101981.31;;;16.26;100.00
78373;BME280;67656;52.074;4.758;2023-06-22T04:52:50;101983.22;;;16.48;100.00
78373;BME280;67656;52.074;4.758;2023-06-22T04:57:53;101985.53;;;16.59;100.00
78373;BME280;67656;52.074;4.758;2023-06-22T05:02:53;101980.09;;;16.62;100.00
78373;BME280;67656;52.074;4.758;2023-06-22T05:07:56;101975.41;;;16.69;100.00
78373;BME280;67656;52.074;4.758;2023-06-22T05:13:00;101975.75;;;16.83;100.00
78373;BME280;67656;52.074;4.758;2023-06-22T05:18:03;101969.06;;;16.98;100.00
78373;BME280;67656;52.074;4.758;2023-06-22T05:23:03;101967.66;;;17.12;100.00
78373;BME280;67656;52.074;4.758;2023-06-22T05:28:04;101984.38;;;17.63;100.00
78373;BME280;67656;52.074;4.758;2023-06-22T05:33:07;101972.09;;;18.25;100.00
78373;BME280;67656;52.074;4.758;2023-06-22T05:38:08;101966.44;;;19.14;100.00
78373;BME280;67656;52.074;4.758;2023-06-22T05:43:08;101936.53;;;19.79;100.00
78373;BME280;67656;52.074;4.758;2023-06-22T05:48:12;101935.84;;;19.76;100.00
78373;BME280;67656;52.074;4.758;2023-06-22T05:53:13;101940.09;;;19.80;100.00
78373;BME280;67656;52.074;4.758;2023-06-22T05:58:13;101930.94;;;19.67;100.00
78373;BME280;67656;52.074;4.758;2023-06-22T06:03:14;101937.09;;;19.69;100.00
78373;BME280;67656;52.074;4.758;2023-06-22T06:08:26;101932.22;;;19.77;100.00
78373;BME280;67656;52.074;4.758;2023-06-22T06:13:47;101921.75;;;20.09;100.00
78373;BME280;67656;52.074;4.758;2023-06-22T06:18:52;101918.09;;;20.10;100.00
78373;BME280;67656;52.074;4.758;2023-06-22T06:23:59;101923.56;;;19.72;100.00
78373;BME280;67656;52.074;4.758;2023-06-22T06:29:22;101920.06;;;19.89;100.00
78373;BME280;67656;52.074;4.758;2023-06-22T06:34:28;101922.41;;;19.95;100.00
78373;BME280;67656;52.074;4.758;2023-06-22T06:39:31;101907.03;;;20.51;100.00
78373;BME280;67656;52.074;4.758;2023-06-22T06:44:41;101910.28;;;20.40;100.00
78373;BME280;67656;52.074;4.758;2023-06-22T06:50:02;101908.63;;;20.38;100.00
78373;BME280;67656;52.074;4.758;2023-06-22T06:55:10;101898.16;;;20.84;100.00
78373;BME280;67656;52.074;4.758;2023-06-22T07:00:25;101892.19;;;21.11;100.00
78373;BME280;67656;52.074;4.758;2023-06-22T07:05:39;101892.09;;;20.97;100.00
78373;BME280;67656;52.074;4.758;2023-06-22T07:10:54;101884.81;;;21.63;100.00
78373;BME280;67656;52.074;4.758;2023-06-22T07:21:42;101867.28;;;23.33;100.00
78373;BME280;67656;52.074;4.758;2023-06-22T07:26:54;101854.16;;;23.41;100.00
78373;BME280;67656;52.074;4.758;2023-06-22T07:31:56;101852.09;;;24.12;100.00
78373;BME280;67656;52.074;4.758;2023-06-22T07:36:56;101845.59;;;24.02;100.00
78373;BME280;67656;52.074;4.758;2023-06-22T07:41:57;101840.97;;;24.43;100.00
78373;BME280;67656;52.074;4.758;2023-06-22T07:46:57;101844.81;;;24.77;100.00
78373;BME280;67656;52.074;4.758;2023-06-22T07:51:58;101838.16;;;25.56;100.00
78373;BME280;67656;52.074;4.758;2023-06-22T07:56:58;101833.59;;;24.58;100.00
78373;BME280;67656;52.074;4.758;2023-06-22T08:01:58;101840.63;;;25.10;100.00
78373;BME280;67656;52.074;4.758;2023-06-22T08:06:59;101826.75;;;25.64;100.00
78373;BME280;67656;52.074;4.758;2023-06-22T08:11:59;101817.09;;;25.84;100.00
78373;BME280;67656;52.074;4.758;2023-06-22T08:17:00;101812.88;;;24.71;100.00
78373;BME280;67656;52.074;4.758;2023-06-22T08:22:00;101807.47;;;25.68;100.00
78373;BME280;67656;52.074;4.758;2023-06-22T08:27:01;101812.38;;;26.10;100.00
78373;BME280;67656;52.074;4.758;2023-06-22T08:32:01;101801.19;;;27.16;100.00
78373;BME280;67656;52.074;4.758;2023-06-22T08:37:02;101793.28;;;26.80;100.00
78373;BME280;67656;52.074;4.758;2023-06-22T08:42:02;101792.31;;;26.58;100.00
78373;BME280;67656;52.074;4.758;2023-06-22T08:47:03;101788.53;;;25.57;100.00
78373;BME280;67656;52.074;4.758;2023-06-22T08:52:03;101790.88;;;26.20;100.00
78373;BME280;67656;52.074;4.758;2023-06-22T08:57:04;101780.78;;;26.11;100.00
78373;BME280;67656;52.074;4.758;2023-06-22T09:02:05;101785.84;;;27.05;100.00
78373;BME280;67656;52.074;4.758;2023-06-22T09:07:05;101775.38;;;26.33;100.00
78373;BME280;67656;52.074;4.758;2023-06-22T09:12:06;101774.03;;;26.16;100.00
78373;BME280;67656;52.074;4.758;2023-06-22T09:17:07;101786.00;;;25.42;100.00
78373;BME280;67656;52.074;4.758;2023-06-22T09:22:07;101771.69;;;25.29;100.00
78373;BME280;67656;52.074;4.758;2023-06-22T09:27:08;101774.25;;;26.13;100.00
78373;BME280;67656;52.074;4.758;2023-06-22T09:32:08;101778.06;;;25.28;100.00
78373;BME280;67656;52.074;4.758;2023-06-22T09:37:09;101773.94;;;25.35;100.00
78373;BME280;67656;52.074;4.758;2023-06-22T09:42:09;101765.72;;;25.72;100.00
78373;BME280;67656;52.074;4.758;2023-06-22T09:47:09;101765.25;;;25.19;100.00
78373;BME280;67656;52.074;4.758;2023-06-22T09:52:10;101764.63;;;24.91;100.00
78373;BME280;67656;52.074;4.758;2023-06-22T09:57:10;101758.66;;;24.98;100.00
78373;BME280;67656;52.074;4.758;2023-06-22T10:02:13;101760.25;;;25.50;100.00
78373;BME280;67656;52.074;4.758;2023-06-22T10:07:13;101752.41;;;25.34;100.00
78373;BME280;67656;52.074;4.758;2023-06-22T10:12:16;101757.97;;;24.33;100.00
78373;BME280;67656;52.074;4.758;2023-06-22T10:17:19;101758.16;;;24.43;100.00
78373;BME280;67656;52.074;4.758;2023-06-22T10:22:19;101755.00;;;24.75;100.00
78373;BME280;67656;52.074;4.758;2023-06-22T10:27:20;101756.91;;;24.36;100.00
78373;BME280;67656;52.074;4.758;2023-06-22T10:32:21;101760.13;;;24.41;100.00
78373;BME280;67656;52.074;4.758;2023-06-22T10:37:21;101757.03;;;24.21;100.00
78373;BME280;67656;52.074;4.758;2023-06-22T10:42:22;101763.22;;;24.48;100.00
78373;BME280;67656;52.074;4.758;2023-06-22T10:47:22;101762.06;;;24.39;100.00
78373;BME280;67656;52.074;4.758;2023-06-22T10:52:23;101762.75;;;24.04;100.00
78373;BME280;67656;52.074;4.758;2023-06-22T10:57:23;101761.91;;;24.03;100.00
78373;BME280;67656;52.074;4.758;2023-06-22T11:02:23;101768.88;;;23.80;100.00
78373;BME280;67656;52.074;4.758;2023-06-22T11:07:24;101766.75;;;24.11;100.00
78373;BME280;67656;52.074;4.758;2023-06-22T11:12:24;101767.81;;;24.21;100.00
78373;BME280;67656;52.074;4.758;2023-06-22T11:17:24;101776.44;;;23.88;100.00
78373;BME280;67656;52.074;4.758;2023-06-22T11:22:25;101775.56;;;23.87;100.00
78373;BME280;67656;52.074;4.758;2023-06-22T11:27:25;101774.72;;;23.74;100.00
78373;BME280;67656;52.074;4.758;2023-06-22T11:32:26;101788.22;;;23.34;100.00
78373;BME280;67656;52.074;4.758;2023-06-22T11:37:26;101787.31;;;23.20;100.00
78373;BME280;67656;52.074;4.758;2023-06-22T11:42:27;101766.44;;;22.82;100.00
78373;BME280;67656;52.074;4.758;2023-06-22T11:47:27;101763.44;;;22.45;100.00
78373;BME280;67656;52.074;4.758;2023-06-22T11:52:27;101761.50;;;22.18;100.00
78373;BME280;67656;52.074;4.758;2023-06-22T11:57:28;101745.66;;;22.13;100.00
78373;BME280;67656;52.074;4.758;2023-06-22T12:02:28;101740.84;;;22.18;100.00
78373;BME280;67656;52.074;4.758;2023-06-22T12:07:28;101733.78;;;22.17;100.00
78373;BME280;67656;52.074;4.758;2023-06-22T12:12:29;101724.63;;;22.20;100.00
78373;BME280;67656;52.074;4.758;2023-06-22T12:17:30;101723.66;;;22.35;100.00
78373;BME280;67656;52.074;4.758;2023-06-22T12:22:33;101725.19;;;22.25;100.00
78373;BME280;67656;52.074;4.758;2023-06-22T12:27:35;101724.63;;;22.05;100.00
78373;BME280;67656;52.074;4.758;2023-06-22T12:32:35;101732.03;;;21.87;100.00
78373;BME280;67656;52.074;4.758;2023-06-22T12:37:36;101733.44;;;21.64;100.00
78373;BME280;67656;52.074;4.758;2023-06-22T12:42:36;101732.78;;;21.44;100.00
78373;BME280;67656;52.074;4.758;2023-06-22T12:47:37;101732.34;;;21.52;100.00
78373;BME280;67656;52.074;4.758;2023-06-22T12:52:37;101732.06;;;21.57;100.00
78373;BME280;67656;52.074;4.758;2023-06-22T12:57:37;101732.47;;;21.65;100.00
78373;BME280;67656;52.074;4.758;2023-06-22T13:02:38;101728.34;;;21.59;100.00
78373;BME280;67656;52.074;4.758;2023-06-22T13:07:38;101729.50;;;21.39;100.00
78373;BME280;67656;52.074;4.758;2023-06-22T13:12:38;101737.56;;;21.39;100.00
78373;BME280;67656;52.074;4.758;2023-06-22T13:17:39;101733.88;;;21.26;100.00
78373;BME280;67656;52.074;4.758;2023-06-22T13:22:39;101736.56;;;21.26;100.00
78373;BME280;67656;52.074;4.758;2023-06-22T13:27:41;101741.75;;;21.29;100.00
78373;BME280;67656;52.074;4.758;2023-06-22T13:32:41;101737.84;;;21.35;100.00
78373;BME280;67656;52.074;4.758;2023-06-22T13:37:42;101740.03;;;21.28;100.00
78373;BME280;67656;52.074;4.758;2023-06-22T13:42:42;101727.00;;;21.36;100.00
78373;BME280;67656;52.074;4.758;2023-06-22T13:47:42;101718.28;;;21.32;100.00
78373;BME280;67656;52.074;4.758;2023-06-22T13:52:43;101722.13;;;21.43;100.00
78373;BME280;67656;52.074;4.758;2023-06-22T13:57:43;101704.16;;;21.29;100.00
78373;BME280;67656;52.074;4.758;2023-06-22T14:02:43;101709.22;;;21.19;100.00
78373;BME280;67656;52.074;4.758;2023-06-22T14:07:44;101693.53;;;20.97;100.00
78373;BME280;67656;52.074;4.758;2023-06-22T14:12:45;101685.75;;;20.76;100.00
78373;BME280;67656;52.074;4.758;2023-06-22T14:17:46;101686.34;;;20.49;100.00
78373;BME280;67656;52.074;4.758;2023-06-22T14:22:46;101683.50;;;20.20;100.00
78373;BME280;67656;52.074;4.758;2023-06-22T14:27:46;101680.72;;;20.06;100.00
78373;BME280;67656;52.074;4.758;2023-06-22T14:33:17;101692.56;;;20.02;100.00
78373;BME280;67656;52.074;4.758;2023-06-22T14:38:18;101691.94;;;19.97;100.00
78373;BME280;67656;52.074;4.758;2023-06-22T14:43:18;101687.28;;;19.83;100.00
78373;BME280;67656;52.074;4.758;2023-06-22T14:48:18;101685.97;;;19.74;100.00
78373;BME280;67656;52.074;4.758;2023-06-22T14:53:35;101690.56;;;19.72;100.00
78373;BME280;67656;52.074;4.758;2023-06-22T14:58:40;101698.41;;;19.75;100.00
78373;BME280;67656;52.074;4.758;2023-06-22T15:03:41;101696.69;;;19.74;100.00
78373;BME280;67656;52.074;4.758;2023-06-22T15:08:41;101694.94;;;19.73;100.00
78373;BME280;67656;52.074;4.758;2023-06-22T15:13:42;101677.34;;;19.69;100.00
78373;BME280;67656;52.074;4.758;2023-06-22T15:18:42;101674.97;;;19.62;100.00
78373;BME280;67656;52.074;4.758;2023-06-22T15:23:45;101663.97;;;19.51;100.00
78373;BME280;67656;52.074;4.758;2023-06-22T15:28:46;101673.19;;;19.45;100.00
78373;BME280;67656;52.074;4.758;2023-06-22T15:33:47;101676.91;;;19.43;100.00
78373;BME280;67656;52.074;4.758;2023-06-22T15:38:47;101676.09;;;19.41;100.00
78373;BME280;67656;52.074;4.758;2023-06-22T15:44:13;101672.78;;;19.36;100.00
78373;BME280;67656;52.074;4.758;2023-06-22T15:49:31;101676.34;;;19.36;100.00
78373;BME280;67656;52.074;4.758;2023-06-22T15:54:32;101686.34;;;19.32;100.00
78373;BME280;67656;52.074;4.758;2023-06-22T15:59:41;101675.53;;;19.16;100.00
78373;BME280;67656;52.074;4.758;2023-06-22T16:04:41;101694.22;;;19.18;100.00
78373;BME280;67656;52.074;4.758;2023-06-22T16:09:42;101696.25;;;19.13;100.00
78373;BME280;67656;52.074;4.758;2023-06-22T16:14:43;101703.97;;;19.19;100.00
78373;BME280;67656;52.074;4.758;2023-06-22T16:19:43;101698.25;;;19.27;100.00
78373;BME280;67656;52.074;4.758;2023-06-22T16:24:44;101684.22;;;19.22;100.00
78373;BME280;67656;52.074;4.758;2023-06-22T16:29:45;101691.84;;;19.29;100.00
78373;BME280;67656;52.074;4.758;2023-06-22T16:34:48;101693.09;;;19.22;100.00
78373;BME280;67656;52.074;4.758;2023-06-22T16:39:49;101692.47;;;19.17;100.00
78373;BME280;67656;52.074;4.758;2023-06-22T16:44:50;101693.25;;;19.37;100.00
78373;BME280;67656;52.074;4.758;2023-06-22T16:49:50;101682.88;;;19.30;100.00
78373;BME280;67656;52.074;4.758;2023-06-22T16:54:51;101665.41;;;19.23;100.00
78373;BME280;67656;52.074;4.758;2023-06-22T16:59:54;101670.44;;;19.29;100.00
78373;BME280;67656;52.074;4.758;2023-06-22T17:04:55;101679.91;;;19.19;100.00
78373;BME280;67656;52.074;4.758;2023-06-22T17:09:56;101680.34;;;19.10;100.00
78373;BME280;67656;52.074;4.758;2023-06-22T17:14:57;101705.53;;;19.23;100.00
78373;BME280;67656;52.074;4.758;2023-06-22T17:19:58;101709.81;;;19.45;100.00
78373;BME280;67656;52.074;4.758;2023-06-22T17:24:58;101719.25;;;19.52;100.00
78373;BME280;67656;52.074;4.758;2023-06-22T17:30:14;101726.97;;;19.58;100.00
78373;BME280;67656;52.074;4.758;2023-06-22T17:35:15;101720.81;;;19.56;100.00
78373;BME280;67656;52.074;4.758;2023-06-22T17:40:17;101734.34;;;19.53;100.00
78373;BME280;67656;52.074;4.758;2023-06-22T17:45:22;101734.59;;;19.48;100.00
78373;BME280;67656;52.074;4.758;2023-06-22T17:50:24;101736.94;;;19.55;100.00
78373;BME280;67656;52.074;4.758;2023-06-22T17:55:25;101741.84;;;19.46;100.00
78373;BME280;67656;52.074;4.758;2023-06-22T18:00:26;101738.78;;;19.54;100.00
78373;BME280;67656;52.074;4.758;2023-06-22T18:05:34;101736.41;;;19.48;100.00
78373;BME280;67656;52.074;4.758;2023-06-22T18:10:36;101731.69;;;19.53;100.00
78373;BME280;67656;52.074;4.758;2023-06-22T18:15:38;101730.84;;;19.53;100.00
78373;BME280;67656;52.074;4.758;2023-06-22T18:20:42;101718.44;;;19.68;100.00
78373;BME280;67656;52.074;4.758;2023-06-22T18:25:43;101733.88;;;19.62;100.00
78373;BME280;67656;52.074;4.758;2023-06-22T18:30:46;101733.97;;;19.61;100.00
78373;BME280;67656;52.074;4.758;2023-06-22T18:35:49;101758.31;;;19.56;100.00
78373;BME280;67656;52.074;4.758;2023-06-22T18:40:53;101769.63;;;19.44;100.00
78373;BME280;67656;52.074;4.758;2023-06-22T18:45:53;101767.03;;;19.42;100.00
78373;BME280;67656;52.074;4.758;2023-06-22T18:51:10;101744.22;;;19.53;100.00
78373;BME280;67656;52.074;4.758;2023-06-22T18:56:12;101744.28;;;19.51;100.00
78373;BME280;67656;52.074;4.758;2023-06-22T19:01:17;101730.72;;;19.37;100.00
78373;BME280;67656;52.074;4.758;2023-06-22T19:17:19;101725.50;;;18.98;100.00
78373;BME280;67656;52.074;4.758;2023-06-22T19:27:54;101739.63;;;18.83;100.00
78373;BME280;67656;52.074;4.758;2023-06-22T19:32:56;101737.69;;;18.67;100.00
78373;BME280;67656;52.074;4.758;2023-06-22T19:37:57;101755.59;;;18.65;100.00
78373;BME280;67656;52.074;4.758;2023-06-22T19:43:05;101761.22;;;18.59;100.00
78373;BME280;67656;52.074;4.758;2023-06-22T19:48:13;101773.63;;;18.41;100.00
78373;BME280;67656;52.074;4.758;2023-06-22T19:53:17;101779.19;;;18.36;100.00
78373;BME280;67656;52.074;4.758;2023-06-22T19:58:19;101775.22;;;18.26;100.00
78373;BME280;67656;52.074;4.758;2023-06-22T20:03:30;101793.13;;;18.24;100.00
78373;BME280;67656;52.074;4.758;2023-06-22T20:08:54;101791.28;;;18.05;100.00
78373;BME280;67656;52.074;4.758;2023-06-22T20:13:55;101796.09;;;17.97;100.00
78373;BME280;67656;52.074;4.758;2023-06-22T20:19:11;101816.09;;;17.87;100.00
78373;BME280;67656;52.074;4.758;2023-06-22T20:24:14;101827.06;;;17.80;100.00
78373;BME280;67656;52.074;4.758;2023-06-22T20:29:33;101846.59;;;17.81;100.00
78373;BME280;67656;52.074;4.758;2023-06-22T20:34:48;101843.44;;;17.71;100.00
78373;BME280;67656;52.074;4.758;2023-06-22T20:39:51;101847.63;;;17.56;100.00
78373;BME280;67656;52.074;4.758;2023-06-22T20:44:52;101847.69;;;17.55;100.00
78373;BME280;67656;52.074;4.758;2023-06-22T20:49:55;101845.97;;;17.54;100.00
78373;BME280;67656;52.074;4.758;2023-06-22T20:54:55;101852.91;;;17.58;100.00
78373;BME280;67656;52.074;4.758;2023-06-22T20:59:56;101861.09;;;17.53;100.00
78373;BME280;67656;52.074;4.758;2023-06-22T21:04:59;101872.66;;;17.54;100.00
78373;BME280;67656;52.074;4.758;2023-06-22T21:10:03;101871.91;;;17.50;100.00
78373;BME280;67656;52.074;4.758;2023-06-22T21:15:03;101886.50;;;17.41;100.00
78373;BME280;67656;52.074;4.758;2023-06-22T21:20:05;101871.41;;;17.40;100.00
78373;BME280;67656;52.074;4.758;2023-06-22T21:25:07;101859.56;;;17.25;100.00
78373;BME280;67656;52.074;4.758;2023-06-22T21:30:12;101870.28;;;17.24;100.00
78373;BME280;67656;52.074;4.758;2023-06-22T21:35:13;101875.09;;;17.14;100.00
78373;BME280;67656;52.074;4.758;2023-06-22T21:40:15;101895.59;;;17.13;100.00
78373;BME280;67656;52.074;4.758;2023-06-22T21:45:16;101906.38;;;17.10;100.00
78373;BME280;67656;52.074;4.758;2023-06-22T21:50:17;101917.03;;;17.10;100.00
78373;BME280;67656;52.074;4.758;2023-06-22T21:55:17;101914.72;;;17.01;100.00
78373;BME280;67656;52.074;4.758;2023-06-22T22:00:18;101925.72;;;16.92;100.00
78373;BME280;67656;52.074;4.758;2023-06-22T22:05:18;101932.78;;;16.93;100.00
78373;BME280;67656;52.074;4.758;2023-06-22T22:10:19;101937.78;;;16.77;100.00
78373;BME280;67656;52.074;4.758;2023-06-22T22:15:20;101940.06;;;16.64;100.00
78373;BME280;67656;52.074;4.758;2023-06-22T22:20:20;101934.06;;;16.57;100.00
78373;BME280;67656;52.074;4.758;2023-06-22T22:25:21;101936.91;;;16.52;100.00
78373;BME280;67656;52.074;4.758;2023-06-22T22:30:21;101945.81;;;16.51;100.00
78373;BME280;67656;52.074;4.758;2023-06-22T22:35:22;101945.06;;;16.48;100.00
78373;BME280;67656;52.074;4.758;2023-06-22T22:40:23;101950.22;;;16.52;100.00
78373;BME280;67656;52.074;4.758;2023-06-22T22:45:23;101940.69;;;16.45;100.00
78373;BME280;67656;52.074;4.758;2023-06-22T22:50:26;101950.06;;;16.32;100.00
78373;BME280;67656;52.074;4.758;2023-06-22T22:55:32;101961.78;;;16.26;100.00
78373;BME280;67656;52.074;4.758;2023-06-22T23:00:33;101961.34;;;16.13;100.00
78373;BME280;67656;52.074;4.758;2023-06-22T23:05:33;101971.25;;;16.08;100.00
78373;BME280;67656;52.074;4.758;2023-06-22T23:10:34;101995.28;;;16.06;100.00
78373;BME280;67656;52.074;4.758;2023-06-22T23:15:34;101997.56;;;15.90;100.00
78373;BME280;67656;52.074;4.758;2023-06-22T23:20:37;102002.91;;;15.90;100.00
78373;BME280;67656;52.074;4.758;2023-06-22T23:25:37;101995.28;;;15.78;100.00
78373;BME280;67656;52.074;4.758;2023-06-22T23:30:38;102009.78;;;15.68;100.00
78373;BME280;67656;52.074;4.758;2023-06-22T23:35:38;102016.25;;;15.59;100.00
78373;BME280;67656;52.074;4.758;2023-06-22T23:40:39;102009.25;;;15.56;100.00
78373;BME280;67656;52.074;4.758;2023-06-22T23:45:39;102021.59;;;15.57;100.00
78373;BME280;67656;52.074;4.758;2023-06-22T23:50:40;102029.50;;;15.60;100.00
78373;BME280;67656;52.074;4.758;2023-06-22T23:55:40;102034.81;;;15.60;100.00
